x

Whitefish Point, Mi (wfpm4) Weather Station

5:40pm - Fri 24th Feb 2017 All times are CST. -6 hours from GMT.

  • Wind
    15mph, 20mph gusts
  • Air Temp 22°f
  • Sea Pressure 1004.7mb
  • Whitefish Point, Mi
  • Whitefish Point, Mi

More Historic Weather Station data

Upgrade to MSW Pro to gain access to the past 30 days of data for over 8000 Wavebouys and Weather Stations around the globe.

Join Pro

Comparision Forecast

View Surf forecast
   
Fri 02/24 5:40pm 15 20 mph 1004.7mb 22f
5:30pm 11 20 mph 1005.4mb 22f
5:20pm 14 20 mph 1004.4mb 22f
5:10pm 13 24 mph 1004.7mb 22f
5:00pm 18 25 mph 1005.1mb 23f
4:40pm 14 20 mph 1004.7mb 23f
4:30pm 14 18 mph 1005.8mb 23f
4:20pm 13 18 mph 1006.1mb 23f
4:10pm 10 17 mph 1005.4mb 24f
4:00pm 15 21 mph 1005.4mb 24f
3:40pm 16 21 mph 1005.8mb 25f
3:30pm 16 21 mph 1005.4mb 25f
3:20pm 14 20 mph 1006.4mb 25f
3:10pm 16 21 mph 1006.8mb 25f
3:00pm 11 18 mph 1006.4mb 26f
2:40pm 11 20 mph 1006.8mb 26f
2:30pm 13 21 mph 1006.4mb 26f
2:20pm 13 21 mph 1006.4mb 26f
2:10pm 10 17 mph 1006.4mb 26f
2:00pm 11 18 mph 1007.1mb 26f
1:40pm 11 17 mph 1006.4mb 26f
1:30pm 13 18 mph 1007.5mb 26f
1:20pm 14 20 mph 1007.5mb 26f
1:10pm 15 17 mph 1006.4mb 26f
1:00pm 10 20 mph 1006.8mb 26f
12:40pm 11 17 mph 1007.8mb 26f
12:30pm 10 20 mph 1007.1mb 26f
12:20pm 14 28 mph 1007.1mb 26f
12:10pm 18 26 mph 1006.4mb 26f
12:00pm 20 23 mph 1007.1mb 25f
11:40am 13 20 mph 1009.1mb 25f
11:30am 17 20 mph 1009.1mb 25f
11:20am 13 20 mph 1008.5mb 25f
11:10am 18 22 mph 1008.5mb 25f
11:00am 15 17 mph 1009.1mb 25f
10:40am 16 20 mph 1007.8mb 25f
10:30am 16 20 mph 1009.1mb 25f
10:20am 17 21 mph 1008.5mb 25f
10:10am 16 18 mph 1008.8mb 25f
10:00am 10
mph
1009.8mb 25f
9:40am 2 7 mph 1011.5mb 26f
9:30am 7 9 mph 1010.5mb 26f
9:20am 6 13 mph 1010.8mb 26f
9:10am 10 15 mph 1011.2mb 25f
9:00am 10 17 mph 1010.5mb 25f
8:40am 11 21 mph 1010.8mb 25f
8:30am 13 20 mph 1010.5mb 25f
8:20am 8 17 mph 1010.2mb 25f
8:10am 10 16 mph 1010.5mb 26f
8:00am 10 17 mph 1010.8mb 25f
7:40am 14 21 mph 1010.5mb 25f
7:30am 14 20 mph 1010.8mb 25f
7:20am 14 20 mph 1011.2mb 25f
7:10am 10 20 mph 1010.5mb 25f
7:00am 15 20 mph 1010.5mb 26f
6:40am 13 16 mph 1011.2mb 25f
6:30am 11 18 mph 1010.5mb 26f
6:20am 10 17 mph 1010.8mb 26f
6:10am 13 17 mph 1011.2mb 26f
6:00am 10 16 mph 1011.2mb 26f
5:40am 9 16 mph 1011.9mb 26f
5:30am 14 20 mph 1012.2mb 26f
5:20am 14 17 mph 1011.5mb 27f
5:10am 13 17 mph 1012.2mb 27f
5:00am 11 17 mph 1012.9mb 27f
4:40am 8 14 mph 1012.2mb 27f
4:30am 8 14 mph 1013.2mb 27f
4:20am 8 13 mph 1012.9mb 28f
4:10am 8 11 mph 1012.2mb 28f
4:00am 7 13 mph 1011.9mb 28f
3:40am 7 11 mph 1012.5mb 28f
3:30am 8 11 mph 1011.5mb 28f
3:20am 8 14 mph 1012.2mb 28f
3:10am 9 16 mph 1012.2mb 28f
3:00am 7 13 mph 1012.2mb 28f
2:40am 9 14 mph 1012.9mb 29f
2:30am 7 15 mph 1012.9mb 29f
2:20am 6 16 mph 1012.5mb 29f
2:10am 10 15 mph 1012.9mb 29f
2:00am 7 11 mph 1013.2mb 29f
1:40am 7 13 mph 1012.5mb 29f
1:30am 8 10 mph 1013.2mb 29f
1:20am 8 10 mph 1013.5mb 29f
1:10am 7 11 mph 1012.9mb 30f
1:00am 8 13 mph 1013.2mb 30f
12:40am 9 14 mph 1013.5mb 30f
12:30am 9 11 mph 1013.2mb 30f
12:20am 6 14 mph 1013.9mb 31f
12:10am 6 14 mph 1013.9mb 31f
12:00am 8 17 mph 1013.2mb 31f
Thu 02/23 11:40pm 7 14 mph 1013.9mb 31f
11:30pm 5 13 mph 1013.9mb 31f
11:20pm 7 14 mph 1013.2mb 31f
11:10pm 7 11 mph 1013.5mb 31f
11:00pm 6 11 mph 1014.2mb 31f
10:40pm 5 10 mph 1013.9mb 31f
10:30pm 7 11 mph 1014.6mb 32f
10:20pm 6 11 mph 1014.2mb 32f
10:10pm 3 9 mph 1013.5mb 32f
10:00pm 3 11 mph 1013.9mb 32f
9:40pm 3 8 mph 1013.2mb 32f
9:30pm 5 10 mph 1013.2mb 32f
9:20pm 5 10 mph 1013.9mb 32f
9:10pm 3 9 mph 1013.2mb 32f
9:00pm 3 11 mph 1012.9mb 32f
8:40pm 9 14 mph 1013.2mb 32f
8:30pm 5 14 mph 1012.5mb 31f
8:20pm 8 15 mph 1012.5mb 32f
8:10pm 8 15 mph 1013.2mb 32f
8:00pm 9 15 mph 1012.9mb 32f
7:30pm 6 16 mph 1013.2mb 31f
7:20pm 8 15 mph 1012.5mb 31f
7:10pm 8 15 mph 1012.5mb 31f
7:00pm 9 16 mph 1013.2mb 31f
6:40pm 9 16 mph 1012.2mb 31f
6:30pm 8 15 mph 1013.2mb 31f
6:20pm 7 11 mph 1013.2mb 31f
6:10pm 5 14 mph 1012.5mb 31f
6:00pm 7 10 mph 1012.9mb 31f
5:50pm 6 13 mph 1012.9mb 31f
5:40pm 8 13 mph 1012.2mb 31f
5:30pm 6 13 mph 1012.2mb 31f
5:20pm 6 13 mph 1012.5mb 31f
5:10pm 6 13 mph 1011.9mb 31f
5:00pm 5 10 mph 1012.2mb 31f
4:50pm 3 13 mph 1012.2mb 32f
4:40pm 8 16 mph 1011.5mb 32f
4:30pm 8 14 mph 1011.9mb 33f
4:20pm 8 13 mph 1011.5mb 33f
4:10pm 6 13 mph 1011.2mb 33f
4:00pm 8 16 mph 1011.9mb 33f
3:50pm 8 20 mph 1010.8mb 34f
3:40pm 8 20 mph 1011.5mb 34f
3:30pm 13 23 mph 1011.5mb 34f
3:20pm 9 22 mph 1011.2mb 34f
3:10pm 11 20 mph 1011.5mb 34f
3:00pm 9 24 mph 1010.5mb 34f
2:50pm 13 23 mph 1011.2mb 34f
2:40pm 15 23 mph 1010.5mb 34f
2:30pm 13 23 mph 1010.8mb 34f
2:20pm 14 22 mph 1010.2mb 35f
2:10pm 9 22 mph 1010.8mb 36f
2:00pm 11 20 mph 1010.2mb 36f
1:50pm 11 20 mph 1010.5mb 36f
1:40pm 10 21 mph 1009.8mb 36f
1:30pm 9 20 mph 1010.2mb 36f
1:20pm 9 20 mph 1009.8mb 37f
1:10pm 7 16 mph 1009.5mb 38f
1:00pm 9 18 mph 1009.5mb 38f
12:50pm 6 14 mph 1008.8mb 37f
12:40pm 10 16 mph 1009.1mb 37f
12:30pm 7 17 mph 1008.8mb 36f
12:20pm 9 18 mph 1009.1mb 36f
12:10pm 7 18 mph 1008.8mb 36f
12:00pm 10 16 mph 1009.1mb 36f
11:50am 7 14 mph 1008.8mb 36f
11:40am 9 16 mph 1009.5mb 35f
11:30am 6 14 mph 1008.8mb 36f
11:20am 9 17 mph 1009.5mb 36f
11:10am 10 18 mph 1008.5mb 36f
11:00am 8 16 mph 1009.1mb 37f
10:50am 10 18 mph 1008.5mb 37f
10:40am 9 20 mph 1008.5mb 37f
10:30am 11 20 mph 1008.5mb 38f
10:20am 8 17 mph 1007.5mb 38f
10:10am 9 17 mph 1008.1mb 38f
10:00am 9 17 mph 1007.1mb 37f
9:50am 10 18 mph 1007.8mb 37f
9:40am 7 18 mph 1007.1mb 37f
9:30am 9 20 mph 1007.5mb 36f
9:20am 10 18 mph 1006.8mb 37f
9:10am 8 20 mph 1005.8mb 36f
9:00am 11 18 mph 1006.8mb 36f
8:50am 10 18 mph 1005.8mb 36f
8:40am 8 16 mph 1006.1mb 35f
8:30am 11 18 mph 1006.1mb 34f
8:20am 10 20 mph 1005.8mb 33f
8:10am 11 22 mph 1005.1mb 33f
8:00am 10 23 mph 1005.8mb 33f
7:50am 11 20 mph 1005.8mb 33f
7:40am 13 21 mph 1004.7mb 33f
7:30am 13 20 mph 1005.1mb 33f
7:20am 11 21 mph 1005.1mb 33f
7:10am 11 21 mph 1004.1mb 33f
7:00am 13 21 mph 1004.1mb 33f
6:40am 8 16 mph 1004.1mb 33f
6:30am 8 18 mph 1003.7mb 33f
6:20am 8 15 mph 1004.1mb 33f
6:10am 9 17 mph 1003.7mb 33f
6:00am 9 16 mph 1002.7mb 33f
5:50am 9 18 mph 1003mb 33f
5:40am 7 20 mph 1003mb 33f
5:30am 10 21 mph 1002.4mb 33f
5:20am 13 24 mph 1001.7mb 33f
5:10am 10 18 mph 1002.4mb 33f
5:00am 11 20 mph 1001.7mb 34f
4:50am 11 21 mph 1001mb 34f
4:40am 10 21 mph 1001.7mb 35f
4:30am 11 20 mph 1001.7mb 35f
4:20am 8 20 mph 1000.7mb 35f
4:10am 10 16 mph 1000.7mb 35f
4:00am 9 17 mph 1000.7mb 35f
3:50am 9 15 mph 999.7mb 35f
2:50am 8 13 mph 1000.3mb 35f
1:50am 9 13 mph 1000.7mb 35f
12:50am 3 10 mph 1000mb 35f
Wed 02/22 11:50pm 7 8 mph 1000.3mb 35f
10:50pm 5 6 mph 1000mb 37f
9:50pm 2
mph
1000.7mb 35f
8:50pm 2 3 mph 1001mb 35f
7:50pm  -  mph 1001mb 36f
6:50pm 2 5 mph 1002mb 37f
5:50pm 3 6 mph 1002mb 36f
4:50pm 3 5 mph 1000.7mb 35f
3:50pm 3 5 mph 1001.4mb 40f
2:50pm 5 9 mph 1002mb 37f
1:50pm 11 14 mph 1001mb 39f
12:50pm 6 8 mph 1001.7mb 37f
11:50am 7 10 mph 1002.4mb 37f
10:50am 7 11 mph 1003mb 35f
9:50am 9 14 mph 1003.7mb 38f
8:50am 9 14 mph 1004.1mb 35f
7:50am 15 17 mph 1005.1mb 35f
6:50am 10 14 mph 1004.7mb 33f
4:40am 7 11 mph 1005.4mb 34f
4:30am 9 10 mph 1005.8mb 35f
4:20am 9 13 mph 1004.7mb 35f
4:10am 10 14 mph 1005.4mb 35f
4:00am 9 11 mph 1005.8mb 35f
3:40am 11 16 mph 1004.7mb 35f
3:30am 10 14 mph 1005.8mb 35f
3:20am 11 15 mph 1006.1mb 35f
3:10am 10 14 mph 1005.8mb 35f
3:00am 10 14 mph 1006.8mb 35f
2:40am 9 14 mph 1006.1mb 35f
2:30am 10 16 mph 1006.8mb 35f
2:20am 15 17 mph 1007.1mb 35f
2:10am 13 17 mph 1006.4mb 35f
2:00am 13 15 mph 1006.4mb 35f
1:40am 13 16 mph 1006.8mb 34f
1:30am 13 17 mph 1006.1mb 35f
1:20am 14 17 mph 1007.1mb 35f
1:10am 13 15 mph 1007.5mb 35f
1:00am 14 17 mph 1006.8mb 34f
12:40am 15 17 mph 1007.8mb 34f
12:30am 14 16 mph 1007.5mb 34f
12:20am 11 15 mph 1007.1mb 35f
12:10am 11 15 mph 1007.8mb 35f
12:00am 11 13 mph 1007.5mb 35f
Tue 02/21 11:40pm 9 10 mph 1007.8mb 34f
11:30pm 7 9 mph 1008.1mb 34f
11:20pm 7 9 mph 1007.8mb 34f
11:10pm 7 10 mph 1007.8mb 34f
11:00pm 8 11 mph 1008.5mb 34f
10:40pm 10 14 mph 1007.5mb 34f
10:30pm 10 13 mph 1008.1mb 34f
10:20pm 11 14 mph 1008.1mb 34f
10:10pm 9 11 mph 1007.5mb 34f
10:00pm 8 11 mph 1008.1mb 33f
9:40pm 10 14 mph 1008.1mb 33f
9:30pm 9 11 mph 1008.1mb 33f
9:20pm 8 10 mph 1008.8mb 33f
9:10pm 7 9 mph 1008.8mb 34f
9:00pm 7 11 mph 1008.1mb 34f
8:40pm 10 13 mph 1008.8mb 35f
8:30pm 9 11 mph 1008.1mb 34f
8:20pm 7 11 mph 1008.8mb 35f
8:10pm 10 11 mph 1009.1mb 34f
8:00pm 8 9 mph 1008.8mb 34f
7:40pm 7 9 mph 1009.5mb 34f
7:30pm 7 8 mph 1009.1mb 34f
7:20pm 7 8 mph 1008.5mb 33f
7:10pm 6 7 mph 1009.5mb 32f
7:00pm 6 7 mph 1009.5mb 32f
6:40pm 3 6 mph 1010.2mb 32f
6:30pm 2 3 mph 1009.8mb 32f
6:20pm 2 3 mph 1009.8mb 32f
6:10pm 3 7 mph 1010.5mb 32f
6:00pm 2 3 mph 1009.5mb 32f
5:40pm 5 7 mph 1009.8mb 32f
5:30pm 5 8 mph 1009.8mb 32f
5:20pm 6 7 mph 1010.2mb 33f
5:10pm 2
mph
1009.5mb 33f
5:00pm 1 2 mph 1009.8mb 34f
4:40pm 6 8 mph 1009.5mb 34f
4:30pm  -  3 mph 1009.8mb 37f
4:20pm 3 6 mph 1008.8mb 37f
4:10pm 2 7 mph 1009.5mb 40f
4:00pm 5 9 mph 1009.8mb 42f
3:40pm 5 8 mph 1009.1mb 41f
3:30pm 6 11 mph 1009.1mb 42f
3:20pm 6 11 mph 1009.5mb 42f
3:10pm 7 13 mph 1009.5mb 42f
3:00pm 6 13 mph 1009.5mb 43f
2:40pm 6 11 mph 1009.5mb 45f
2:30pm 5 14 mph 1009.5mb 45f
2:20pm 9 15 mph 1009.1mb 45f
2:10pm 9 14 mph 1009.1mb 44f
2:00pm 9 14 mph 1008.8mb 44f
1:40pm 15 20 mph 1008.8mb 44f
1:30pm 10 20 mph 1008.8mb 45f
1:20pm 8 17 mph 1008.5mb 44f
1:10pm 6 14 mph 1008.8mb 46f
1:00pm 10 18 mph 1008.5mb 44f
12:40pm 5 14 mph 1008.8mb 47f
12:30pm 8 13 mph 1009.1mb 46f
12:20pm 9 21 mph 1009.5mb 45f
12:10pm 10 16 mph 1009.5mb 45f
12:00pm 13 18 mph 1009.5mb 44f
11:40am 6 14 mph 1008.8mb 46f
11:30am 8 16 mph 1009.5mb 42f
11:20am 10 16 mph 1009.5mb 43f
11:10am 7 14 mph 1009.1mb 43f
11:00am 7 14 mph 1009.5mb 44f
10:40am 9 16 mph 1009.5mb 42f
10:30am 9 15 mph 1009.1mb 42f
10:20am 8 13 mph 1009.5mb 41f
10:10am 5 10 mph 1008.8mb 42f
10:00am 7 13 mph 1009.5mb 41f
9:40am 3 11 mph 1009.1mb 41f
9:30am 6 13 mph 1009.1mb 40f
9:20am 8 13 mph 1008.5mb 40f
9:10am 9 15 mph 1009.1mb 40f
9:00am 7 11 mph 1008.8mb 40f
8:40am 8 14 mph 1008.8mb 40f
8:30am 9 17 mph 1008.5mb 40f
8:20am 10 16 mph 1007.8mb 40f
8:10am 5 8 mph 1008.5mb 37f
8:00am 2 6 mph 1008.1mb 36f
7:40am 5 9 mph 1007.5mb 37f
7:30am 5 9 mph 1007.8mb 37f
7:20am 5 9 mph 1006.8mb 36f
7:10am 5 10 mph 1006.8mb 35f
7:00am 9 13 mph 1007.5mb 35f
6:40am 10 15 mph 1006.1mb 35f
6:30am 9 16 mph 1006.8mb 34f
6:20am 14 20 mph 1006.8mb 35f
6:10am 16 18 mph 1005.8mb 35f
6:00am 17 25 mph 1006.1mb 34f
5:40am 17 24 mph 1006.1mb 35f
5:30am 20 25 mph 1005.8mb 35f
5:20am 20 29 mph 1005.8mb 35f
5:10am 22 29 mph 1005.8mb 35f
5:00am 23 30 mph 1005.1mb 35f
4:50am 23 29 mph 1006.1mb 35f
4:40am 22 28 mph 1006.4mb 35f
4:30am 24 29 mph 1005.8mb 35f
4:20am 24 29 mph 1006.4mb 35f
4:10am 24 28 mph 1006.8mb 35f
4:00am 20 30 mph 1006.4mb 35f
3:50am 23 28 mph 1006.1mb 35f
3:40am 20 28 mph 1007.1mb 35f
3:30am 22 32 mph 1007.1mb 35f
3:20am 24 31 mph 1006.4mb 35f
3:10am 23 30 mph 1007.1mb 36f
3:00am 22 32 mph 1007.8mb 36f
2:50am 24 32 mph 1007.1mb 35f
2:40am 22 33 mph 1007.8mb 36f
2:30am 28 34 mph 1008.1mb 36f
2:20am 28 33 mph 1007.8mb 35f
2:10am 24 34 mph 1007.1mb 34f
2:00am 25 38 mph 1008.1mb 34f
1:50am 28 39 mph 1008.8mb 35f
1:40am 25 31 mph 1008.1mb 34f
1:30am 23 31 mph 1008.5mb 34f
1:20am 23 31 mph 1009.5mb 35f
1:10am 23 33 mph 1009.8mb 34f